Time;durP1;ratioP1;P1;durP2;ratioP2;P2;SDS_P1;SDS_P2;PMS_P1;PMS_P2;Temp;Humidity;BMP_temperature;BMP_pressure;BME280_temperature;BME280_humidity;BME280_pressure;Samples;Min_cycle;Max_cycle;Signal;HPM_P1;HPM_P2
2022/09/24 00:00:39;;;;;;;;;;;13.40;99.90;;;;;;5118525;27;19919;-62
2022/09/24 00:03:05;;;;;;;;;;;13.30;99.90;;;;;;5118129;27;19912;-62
2022/09/24 00:05:35;;;;;;;;;;;13.20;99.90;;;;;;5115449;27;20393;-62
2022/09/24 00:08:01;;;;;;;;;;;13.10;99.90;;;;;;5119041;27;19930;-63
2022/09/24 00:10:26;;;;;;;;;;;13.10;99.90;;;;;;5118865;27;19915;-62
2022/09/24 00:12:52;;;;;;;;;;;13.10;99.90;;;;;;5119222;28;19923;-63
2022/09/24 00:15:17;;;;;;;;;;;13.00;99.90;;;;;;5116090;28;19919;-64
2022/09/24 00:17:43;;;;;;;;;;;12.90;99.90;;;;;;5121517;27;19967;-62
2022/09/24 00:20:08;;;;;;;;;;;12.80;99.90;;;;;;5117991;27;19911;-63
2022/09/24 00:22:34;;;;;;;;;;;12.80;99.90;;;;;;5115070;28;20362;-64
2022/09/24 00:27:43;;;;;;;;;;;12.80;99.90;;;;;;5118101;27;19933;-63
2022/09/24 00:30:09;;;;;;;;;;;12.70;99.90;;;;;;5117248;28;19987;-63
2022/09/24 00:32:34;;;;;;;;;;;12.70;99.90;;;;;;5096824;28;19941;-63
2022/09/24 00:35:00;;;;;;;;;;;12.70;99.90;;;;;;5114929;28;19960;-63
2022/09/24 00:37:27;;;;;;;;;;;12.70;99.90;;;;;;5117246;28;20331;-63
2022/09/24 00:39:52;;;;;;;;;;;12.60;99.90;;;;;;5118484;28;19916;-63
2022/09/24 00:42:18;;;;;;;;;;;12.70;99.90;;;;;;5117323;28;19916;-62
2022/09/24 00:44:44;;;;;;;;;;;12.60;99.90;;;;;;5118355;28;19968;-63
2022/09/24 00:47:12;;;;;;;;;;;12.50;99.90;;;;;;5115379;28;19915;-62
2022/09/24 00:49:38;;;;;;;;;;;12.50;99.90;;;;;;5115198;27;19962;-62
2022/09/24 00:52:04;;;;;;;;;;;12.50;99.90;;;;;;5116848;27;19946;-62
2022/09/24 00:54:29;;;;;;;;;;;12.40;99.90;;;;;;5117954;28;19912;-62
2022/09/24 00:56:57;;;;;;;;;;;12.40;99.90;;;;;;5108912;27;19955;-62
2022/09/24 00:59:24;;;;;;;;;;;12.40;99.90;;;;;;5100385;28;19981;-63
2022/09/24 01:01:52;;;;;;;;;;;12.50;99.90;;;;;;5109750;28;19912;-63
2022/09/24 01:04:20;;;;;;;;;;;12.50;99.90;;;;;;5122327;27;20096;-63
2022/09/24 01:06:46;;;;;;;;;;;12.50;99.90;;;;;;5116574;27;19915;-64
2022/09/24 01:09:12;;;;;;;;;;;12.50;99.90;;;;;;5108226;27;19916;-63
2022/09/24 01:11:45;;;;;;;;;;;12.50;99.90;;;;;;5118724;28;19912;-62
2022/09/24 01:14:17;;;;;;;;;;;12.40;99.90;;;;;;5116662;28;19920;-64
2022/09/24 01:16:43;;;;;;;;;;;12.40;99.90;;;;;;5115888;27;19912;-63
2022/09/24 01:19:27;;;;;;;;;;;12.40;99.90;;;;;;5120393;28;20014;-63
2022/09/24 01:21:56;;;;;;;;;;;12.30;99.90;;;;;;5116084;28;19923;-64
2022/09/24 01:24:51;;;;;;;;;;;12.20;99.90;;;;;;5114836;28;20010;-63
2022/09/24 01:27:20;;;;;;;;;;;12.10;99.90;;;;;;5096021;27;20297;-62
2022/09/24 01:30:09;;;;;;;;;;;12.00;99.90;;;;;;5109512;27;20316;-62
2022/09/24 01:32:39;;;;;;;;;;;12.10;99.90;;;;;;5118067;28;19919;-62
2022/09/24 01:35:12;;;;;;;;;;;12.00;99.90;;;;;;5115699;27;19912;-62
2022/09/24 01:37:40;;;;;;;;;;;11.90;99.90;;;;;;5116367;28;19920;-63
2022/09/24 01:40:06;;;;;;;;;;;11.90;99.90;;;;;;5114512;27;19979;-61
2022/09/24 01:42:32;;;;;;;;;;;11.90;99.90;;;;;;5115190;28;19915;-63
2022/09/24 01:45:00;;;;;;;;;;;11.90;99.90;;;;;;5111902;28;19927;-62
2022/09/24 01:47:38;;;;;;;;;;;11.90;99.90;;;;;;5112536;28;20364;-63
2022/09/24 01:50:05;;;;;;;;;;;11.80;99.90;;;;;;5094464;28;19919;-63
2022/09/24 01:52:33;;;;;;;;;;;11.70;99.90;;;;;;5114925;28;19937;-63
2022/09/24 01:55:00;;;;;;;;;;;11.60;99.90;;;;;;5116226;28;19912;-63
2022/09/24 01:57:30;;;;;;;;;;;11.60;99.90;;;;;;5117293;28;19915;-63
2022/09/24 01:59:59;;;;;;;;;;;11.50;99.90;;;;;;5115764;28;19918;-64
2022/09/24 02:02:30;;;;;;;;;;;11.60;99.90;;;;;;5114150;28;20285;-63
2022/09/24 02:05:04;;;;;;;;;;;11.60;99.90;;;;;;5115305;28;20299;-62
2022/09/24 02:07:59;;;;;;;;;;;11.50;99.90;;;;;;5099849;28;19915;-63
2022/09/24 02:10:27;;;;;;;;;;;11.60;99.90;;;;;;5092363;28;20019;-64
2022/09/24 02:12:57;;;;;;;;;;;11.50;99.90;;;;;;5098224;28;19915;-62
2022/09/24 02:15:25;;;;;;;;;;;11.60;99.90;;;;;;5111919;28;20085;-62
2022/09/24 02:17:53;;;;;;;;;;;11.60;99.90;;;;;;5112052;28;20405;-62
2022/09/24 02:20:20;;;;;;;;;;;11.50;99.90;;;;;;5105909;28;21429;-63
2022/09/24 02:22:47;;;;;;;;;;;11.60;99.90;;;;;;5102303;28;19951;-63
2022/09/24 02:25:14;;;;;;;;;;;11.60;99.90;;;;;;5117968;28;19912;-63
2022/09/24 02:27:40;;;;;;;;;;;11.60;99.90;;;;;;5114840;28;19920;-62
2022/09/24 02:30:07;;;;;;;;;;;11.60;99.90;;;;;;5114020;28;19978;-63
2022/09/24 02:32:35;;;;;;;;;;;11.50;99.90;;;;;;5114603;28;19912;-64
2022/09/24 02:35:03;;;;;;;;;;;11.40;99.90;;;;;;5118764;28;20354;-63
2022/09/24 02:37:33;;;;;;;;;;;11.40;99.90;;;;;;5113311;28;19942;-62
2022/09/24 02:39:58;;;;;;;;;;;11.50;99.90;;;;;;5116891;28;19916;-63
2022/09/24 02:42:24;;;;;;;;;;;11.40;99.90;;;;;;5116935;28;19996;-62
2022/09/24 02:44:51;;;;;;;;;;;11.30;99.90;;;;;;5103660;28;19937;-63
2022/09/24 02:47:17;;;;;;;;;;;11.40;99.90;;;;;;5102556;27;20366;-63
2022/09/24 02:49:43;;;;;;;;;;;11.50;99.90;;;;;;5124219;27;19916;-63
2022/09/24 02:52:09;;;;;;;;;;;11.50;99.90;;;;;;5120643;28;19919;-63
2022/09/24 02:54:34;;;;;;;;;;;11.50;99.90;;;;;;5123008;27;19912;-62
2022/09/24 02:57:00;;;;;;;;;;;11.50;99.90;;;;;;5120246;27;19916;-63
2022/09/24 02:59:25;;;;;;;;;;;11.60;99.90;;;;;;5104420;27;19953;-62
2022/09/24 03:01:51;;;;;;;;;;;11.60;99.90;;;;;;5120197;27;19927;-63
2022/09/24 03:04:16;;;;;;;;;;;11.60;99.90;;;;;;5121133;28;19919;-63
2022/09/24 03:06:42;;;;;;;;;;;11.50;99.90;;;;;;5121383;28;19922;-63
2022/09/24 03:09:10;;;;;;;;;;;11.50;99.90;;;;;;5111473;27;19939;-63
2022/09/24 03:11:36;;;;;;;;;;;11.30;99.90;;;;;;5116210;27;19916;-64
2022/09/24 03:14:01;;;;;;;;;;;11.40;99.90;;;;;;5117197;28;19938;-62
2022/09/24 03:16:27;;;;;;;;;;;11.30;99.90;;;;;;5120523;28;19916;-62
2022/09/24 03:18:52;;;;;;;;;;;11.20;99.90;;;;;;5122350;27;20479;-62
2022/09/24 03:21:19;;;;;;;;;;;11.10;99.90;;;;;;5118426;28;19977;-63
2022/09/24 03:23:44;;;;;;;;;;;11.10;99.90;;;;;;5119226;28;19927;-63
2022/09/24 03:26:10;;;;;;;;;;;11.00;99.90;;;;;;5121104;28;19912;-63
2022/09/24 03:28:36;;;;;;;;;;;11.00;99.90;;;;;;5123748;28;19946;-63
2022/09/24 03:31:02;;;;;;;;;;;11.00;99.90;;;;;;5121598;28;19971;-63
2022/09/24 03:33:32;;;;;;;;;;;10.90;99.90;;;;;;5119733;28;20409;-63
2022/09/24 03:35:57;;;;;;;;;;;11.00;99.90;;;;;;5121019;28;19919;-63
2022/09/24 03:38:23;;;;;;;;;;;11.00;99.90;;;;;;5117852;28;20019;-63
2022/09/24 03:40:48;;;;;;;;;;;11.00;99.90;;;;;;5108376;27;19920;-66
2022/09/24 03:43:14;;;;;;;;;;;11.00;99.90;;;;;;5109995;27;19912;-64
2022/09/24 03:45:40;;;;;;;;;;;11.00;99.90;;;;;;5110894;28;19920;-66
2022/09/24 03:48:05;;;;;;;;;;;11.00;99.90;;;;;;5111689;27;19911;-65
2022/09/24 03:50:31;;;;;;;;;;;10.90;99.90;;;;;;5114646;27;20397;-65
2022/09/24 03:52:56;;;;;;;;;;;11.00;99.90;;;;;;5106452;27;19912;-65
2022/09/24 03:55:22;;;;;;;;;;;11.00;99.90;;;;;;5106860;28;19923;-66
2022/09/24 03:57:48;;;;;;;;;;;11.10;99.90;;;;;;5104849;27;19927;-65
2022/09/24 04:00:13;;;;;;;;;;;11.10;99.90;;;;;;5109547;28;20365;-67
2022/09/24 04:02:39;;;;;;;;;;;11.10;99.90;;;;;;5111623;28;20300;-65
2022/09/24 04:05:05;;;;;;;;;;;10.90;99.90;;;;;;5111362;28;19953;-65
2022/09/24 04:07:31;;;;;;;;;;;10.90;99.90;;;;;;5111716;28;19920;-66
2022/09/24 04:09:57;;;;;;;;;;;10.80;99.90;;;;;;5111556;27;20327;-64
2022/09/24 04:12:22;;;;;;;;;;;10.90;99.90;;;;;;5106368;28;19915;-64
2022/09/24 04:14:48;;;;;;;;;;;10.80;99.90;;;;;;5112735;28;19936;-64
2022/09/24 04:17:14;;;;;;;;;;;11.00;99.90;;;;;;5114013;28;19920;-65
2022/09/24 04:19:40;;;;;;;;;;;11.00;99.90;;;;;;5112277;28;20056;-64
2022/09/24 04:22:05;;;;;;;;;;;11.00;99.90;;;;;;5109195;27;20037;-64
2022/09/24 04:24:31;;;;;;;;;;;10.90;99.90;;;;;;5111648;28;19912;-64
2022/09/24 04:26:56;;;;;;;;;;;11.00;99.90;;;;;;5113283;28;19915;-63
2022/09/24 04:29:22;;;;;;;;;;;10.90;99.90;;;;;;5102392;28;19912;-64
2022/09/24 04:31:47;;;;;;;;;;;11.00;99.90;;;;;;5110592;28;20405;-65
2022/09/24 04:34:13;;;;;;;;;;;11.00;99.90;;;;;;5107470;28;19912;-64
2022/09/24 04:36:39;;;;;;;;;;;11.10;99.90;;;;;;5106476;28;19954;-63
2022/09/24 04:39:05;;;;;;;;;;;11.00;99.90;;;;;;5111201;28;19932;-65
2022/09/24 04:41:30;;;;;;;;;;;10.90;99.90;;;;;;5108327;28;19927;-65
2022/09/24 04:43:57;;;;;;;;;;;10.90;99.90;;;;;;5106634;27;19915;-65
2022/09/24 04:46:22;;;;;;;;;;;10.90;99.90;;;;;;5111304;28;19919;-64
2022/09/24 04:48:48;;;;;;;;;;;10.90;99.90;;;;;;5113084;27;19912;-64
2022/09/24 04:51:16;;;;;;;;;;;10.90;99.90;;;;;;5108866;27;20359;-64
2022/09/24 04:53:42;;;;;;;;;;;10.90;99.90;;;;;;5112593;28;19916;-63
2022/09/24 04:56:10;;;;;;;;;;;10.90;99.90;;;;;;5115329;28;19980;-63
2022/09/24 04:58:37;;;;;;;;;;;10.90;99.90;;;;;;5102285;28;20370;-65
2022/09/24 05:01:02;;;;;;;;;;;10.90;99.90;;;;;;5105050;27;20299;-63
2022/09/24 05:03:28;;;;;;;;;;;10.90;99.90;;;;;;5084757;28;19926;-64
2022/09/24 05:05:54;;;;;;;;;;;10.80;99.90;;;;;;5110262;27;19912;-64
2022/09/24 05:08:19;;;;;;;;;;;10.80;99.90;;;;;;5105020;27;19915;-64
2022/09/24 05:10:45;;;;;;;;;;;10.80;99.90;;;;;;5103913;28;19983;-65
2022/09/24 05:13:10;;;;;;;;;;;10.70;99.90;;;;;;5093539;28;19926;-63
2022/09/24 05:15:36;;;;;;;;;;;10.70;99.90;;;;;;5112790;28;19966;-64
2022/09/24 05:18:02;;;;;;;;;;;10.70;99.90;;;;;;5113730;28;20319;-65
2022/09/24 05:20:27;;;;;;;;;;;10.60;99.90;;;;;;5107919;28;20324;-64
2022/09/24 05:22:53;;;;;;;;;;;10.70;99.90;;;;;;5107197;28;19912;-65
2022/09/24 05:25:19;;;;;;;;;;;10.60;99.90;;;;;;5091773;28;19920;-66
2022/09/24 05:27:49;;;;;;;;;;;10.60;99.90;;;;;;5105381;28;20032;-65
2022/09/24 05:30:16;;;;;;;;;;;10.70;99.90;;;;;;5109442;27;19975;-64
2022/09/24 05:32:42;;;;;;;;;;;10.80;99.90;;;;;;5103647;27;19927;-64
2022/09/24 05:35:08;;;;;;;;;;;10.70;99.90;;;;;;5105490;28;19912;-65
2022/09/24 05:37:34;;;;;;;;;;;10.80;99.90;;;;;;5106643;28;19935;-66
2022/09/24 05:40:46;;;;;;;;;;;10.80;99.90;;;;;;5107910;28;19999;-65
2022/09/24 05:42:45;;;;;;;;;;;10.70;99.90;;;;;;5104221;27;20267;-66
2022/09/24 05:45:13;;;;;;;;;;;10.60;99.90;;;;;;5106970;28;19926;-65
2022/09/24 05:47:38;;;;;;;;;;;10.60;99.90;;;;;;5102388;28;19932;-66
2022/09/24 05:50:04;;;;;;;;;;;10.40;99.90;;;;;;5105269;27;19927;-66
2022/09/24 05:52:29;;;;;;;;;;;10.30;99.90;;;;;;5109080;28;20045;-64
2022/09/24 05:54:55;;;;;;;;;;;10.30;99.90;;;;;;5108364;28;19919;-64
2022/09/24 05:57:20;;;;;;;;;;;10.20;99.90;;;;;;5089346;28;19916;-65
2022/09/24 05:59:46;;;;;;;;;;;10.20;99.90;;;;;;5085496;28;19985;-64
2022/09/24 06:02:11;;;;;;;;;;;10.20;99.90;;;;;;5101505;27;19927;-65
2022/09/24 06:04:37;;;;;;;;;;;10.30;99.90;;;;;;5106272;28;20006;-63
2022/09/24 06:07:02;;;;;;;;;;;10.30;99.90;;;;;;5105989;28;20517;-64
2022/09/24 06:09:28;;;;;;;;;;;10.40;99.90;;;;;;5105002;28;20393;-65
2022/09/24 06:11:55;;;;;;;;;;;10.40;99.90;;;;;;5105587;28;19916;-64
2022/09/24 06:14:20;;;;;;;;;;;10.30;99.90;;;;;;5105044;28;19919;-65
2022/09/24 06:16:46;;;;;;;;;;;10.40;99.90;;;;;;5110845;28;19912;-65
2022/09/24 06:19:11;;;;;;;;;;;10.40;99.90;;;;;;5109837;28;19923;-64
2022/09/24 06:21:37;;;;;;;;;;;10.40;99.90;;;;;;5103209;27;19969;-65
2022/09/24 06:24:02;;;;;;;;;;;10.40;99.90;;;;;;5103841;28;19912;-64
2022/09/24 06:26:28;;;;;;;;;;;10.50;99.90;;;;;;5105124;28;19919;-64
2022/09/24 06:28:53;;;;;;;;;;;10.50;99.90;;;;;;5104513;28;19920;-64
2022/09/24 06:31:19;;;;;;;;;;;10.50;99.90;;;;;;5101309;28;20675;-64
2022/09/24 06:33:45;;;;;;;;;;;10.50;99.90;;;;;;5088191;28;19919;-66
2022/09/24 06:36:10;;;;;;;;;;;10.40;99.90;;;;;;5102247;28;19912;-65
2022/09/24 06:38:38;;;;;;;;;;;10.40;99.90;;;;;;5088876;28;19930;-65
2022/09/24 06:41:04;;;;;;;;;;;10.50;99.90;;;;;;5104014;28;20425;-64
2022/09/24 06:43:29;;;;;;;;;;;10.50;99.90;;;;;;5105777;28;20082;-64
2022/09/24 06:45:56;;;;;;;;;;;10.60;99.90;;;;;;5108704;28;19916;-63
2022/09/24 06:48:21;;;;;;;;;;;10.70;99.90;;;;;;5104945;28;20013;-64
2022/09/24 06:50:47;;;;;;;;;;;10.60;99.90;;;;;;5106346;28;20382;-64
2022/09/24 06:53:13;;;;;;;;;;;10.60;99.90;;;;;;5109873;28;19912;-64
2022/09/24 06:55:38;;;;;;;;;;;10.70;99.90;;;;;;5089356;28;19964;-64
2022/09/24 06:58:08;;;;;;;;;;;10.70;99.90;;;;;;5109556;28;19930;-64
2022/09/24 07:00:34;;;;;;;;;;;10.80;99.90;;;;;;5089045;28;19960;-64
2022/09/24 07:03:00;;;;;;;;;;;10.70;99.90;;;;;;5108503;28;19927;-64
2022/09/24 07:05:26;;;;;;;;;;;10.80;99.90;;;;;;5107937;28;19979;-64
2022/09/24 07:07:51;;;;;;;;;;;10.80;99.90;;;;;;5108154;28;19916;-64
2022/09/24 07:10:17;;;;;;;;;;;10.80;99.90;;;;;;5105616;28;19962;-64
2022/09/24 07:12:42;;;;;;;;;;;10.90;99.90;;;;;;5107467;28;19923;-64
2022/09/24 07:15:09;;;;;;;;;;;11.00;99.90;;;;;;5109042;28;20010;-65
2022/09/24 07:17:34;;;;;;;;;;;11.10;99.90;;;;;;5104524;28;20046;-64
2022/09/24 07:20:00;;;;;;;;;;;11.20;99.90;;;;;;5112827;28;19921;-64
2022/09/24 07:22:26;;;;;;;;;;;11.30;99.90;;;;;;5106206;28;19919;-64
2022/09/24 07:24:51;;;;;;;;;;;11.40;99.90;;;;;;5107908;28;20002;-64
2022/09/24 07:27:20;;;;;;;;;;;11.50;99.90;;;;;;5112286;28;19920;-64
2022/09/24 07:29:48;;;;;;;;;;;11.60;99.90;;;;;;5103968;28;19919;-64
2022/09/24 07:32:15;;;;;;;;;;;11.60;99.90;;;;;;5113071;27;19916;-65
2022/09/24 07:34:41;;;;;;;;;;;11.70;99.90;;;;;;5111516;27;19919;-65
2022/09/24 07:37:06;;;;;;;;;;;11.90;99.90;;;;;;5111386;28;19972;-63
2022/09/24 07:39:32;;;;;;;;;;;12.00;99.90;;;;;;5112478;28;20047;-65
2022/09/24 07:42:00;;;;;;;;;;;12.00;99.90;;;;;;5110474;27;20324;-65
2022/09/24 07:44:25;;;;;;;;;;;12.10;99.90;;;;;;5110047;27;19912;-65
2022/09/24 07:46:51;;;;;;;;;;;12.30;99.90;;;;;;5106842;28;20040;-65
2022/09/24 07:49:17;;;;;;;;;;;12.40;99.90;;;;;;5106278;27;20354;-65
2022/09/24 07:51:43;;;;;;;;;;;12.60;99.90;;;;;;5106645;28;19915;-65
2022/09/24 07:54:09;;;;;;;;;;;12.70;99.90;;;;;;5104413;28;19927;-65
2022/09/24 07:56:35;;;;;;;;;;;12.80;99.90;;;;;;5107645;27;19934;-65
2022/09/24 07:59:00;;;;;;;;;;;12.90;99.90;;;;;;5109377;28;19924;-65
2022/09/24 08:01:26;;;;;;;;;;;13.00;99.90;;;;;;5089556;28;19926;-64
2022/09/24 08:03:52;;;;;;;;;;;13.00;99.90;;;;;;5105723;27;19937;-65
2022/09/24 08:06:18;;;;;;;;;;;13.20;99.90;;;;;;5108898;28;19932;-64
2022/09/24 08:08:47;;;;;;;;;;;13.30;99.90;;;;;;5106457;28;19921;-65
2022/09/24 08:11:13;;;;;;;;;;;13.30;99.90;;;;;;5110808;28;19912;-64
2022/09/24 08:13:39;;;;;;;;;;;13.40;99.90;;;;;;5110421;27;20227;-65
2022/09/24 08:16:06;;;;;;;;;;;13.30;99.90;;;;;;5107279;28;20589;-65
2022/09/24 08:18:32;;;;;;;;;;;13.20;99.90;;;;;;5107655;28;19920;-64
2022/09/24 08:20:58;;;;;;;;;;;13.30;99.90;;;;;;5107318;27;19934;-64
2022/09/24 08:23:24;;;;;;;;;;;13.40;99.90;;;;;;5110289;27;19916;-64
2022/09/24 08:25:50;;;;;;;;;;;13.50;99.90;;;;;;5108287;28;20246;-65
2022/09/24 08:28:18;;;;;;;;;;;13.60;99.90;;;;;;5102301;28;19965;-64
2022/09/24 08:30:44;;;;;;;;;;;13.60;99.90;;;;;;5108593;28;20339;-65
2022/09/24 08:33:10;;;;;;;;;;;13.60;99.90;;;;;;5089744;28;19944;-64
2022/09/24 08:35:35;;;;;;;;;;;13.70;99.90;;;;;;5108068;28;19916;-65
2022/09/24 08:38:02;;;;;;;;;;;13.80;99.90;;;;;;5110224;28;19930;-66
2022/09/24 08:40:35;;;;;;;;;;;13.90;99.90;;;;;;5109970;28;19955;-65
2022/09/24 08:43:20;;;;;;;;;;;14.00;99.90;;;;;;5114408;28;19931;-65
2022/09/24 08:48:41;;;;;;;;;;;14.10;99.90;;;;;;5103243;28;19927;-65
2022/09/24 08:51:11;;;;;;;;;;;14.20;99.90;;;;;;5111237;28;19959;-65
2022/09/24 08:53:49;;;;;;;;;;;14.20;99.90;;;;;;5106333;27;20292;-64
2022/09/24 08:56:19;;;;;;;;;;;14.40;99.90;;;;;;5107777;28;20066;-65
2022/09/24 08:58:47;;;;;;;;;;;14.40;99.90;;;;;;5111589;28;20398;-65
2022/09/24 09:01:23;;;;;;;;;;;14.40;99.90;;;;;;5090424;28;19955;-64
2022/09/24 09:03:55;;;;;;;;;;;14.50;99.90;;;;;;5081983;28;20270;-64
2022/09/24 09:06:45;;;;;;;;;;;14.60;99.90;;;;;;5109417;28;20429;-65
2022/09/24 09:09:15;;;;;;;;;;;14.60;99.90;;;;;;5106582;28;19935;-64
2022/09/24 09:11:43;;;;;;;;;;;14.70;99.90;;;;;;5109061;28;19912;-65
2022/09/24 09:14:11;;;;;;;;;;;14.70;99.90;;;;;;5113414;28;20269;-66
2022/09/24 09:16:37;;;;;;;;;;;14.70;99.90;;;;;;5107870;28;19916;-65
2022/09/24 09:19:04;;;;;;;;;;;14.80;99.90;;;;;;5107222;28;19926;-65
2022/09/24 09:21:33;;;;;;;;;;;14.80;99.90;;;;;;5108097;27;20350;-64
2022/09/24 09:23:59;;;;;;;;;;;14.80;99.90;;;;;;5108892;28;19916;-64
2022/09/24 09:26:26;;;;;;;;;;;14.80;99.90;;;;;;5108711;28;20333;-64
2022/09/24 09:28:51;;;;;;;;;;;14.80;99.90;;;;;;5106359;28;20270;-65
2022/09/24 09:31:36;;;;;;;;;;;14.90;99.90;;;;;;5105528;27;19916;-64
2022/09/24 09:34:16;;;;;;;;;;;14.90;99.90;;;;;;5102827;28;19923;-64
2022/09/24 09:37:02;;;;;;;;;;;15.00;99.90;;;;;;5110555;28;19912;-66
2022/09/24 09:39:36;;;;;;;;;;;15.20;99.90;;;;;;5111719;28;19920;-64
2022/09/24 09:42:08;;;;;;;;;;;15.20;99.90;;;;;;5113737;28;20466;-65
2022/09/24 09:44:40;;;;;;;;;;;15.30;99.90;;;;;;5112587;28;20421;-65
2022/09/24 09:47:21;;;;;;;;;;;15.30;99.90;;;;;;5112019;28;19957;-66
2022/09/24 09:49:49;;;;;;;;;;;15.30;99.90;;;;;;5112062;28;19911;-64
2022/09/24 09:52:19;;;;;;;;;;;15.30;99.90;;;;;;5093521;28;19911;-66
2022/09/24 09:54:45;;;;;;;;;;;15.40;99.90;;;;;;5108466;28;19923;-64
2022/09/24 09:57:17;;;;;;;;;;;15.40;99.90;;;;;;5113175;28;19912;-64
2022/09/24 09:59:45;;;;;;;;;;;15.40;99.90;;;;;;5112726;28;20348;-65
2022/09/24 10:02:17;;;;;;;;;;;15.40;99.90;;;;;;5114691;28;19928;-65
2022/09/24 10:04:43;;;;;;;;;;;15.30;99.90;;;;;;5112535;28;19942;-64
2022/09/24 10:07:09;;;;;;;;;;;15.50;99.90;;;;;;5112417;28;19912;-64
2022/09/24 10:09:35;;;;;;;;;;;15.40;99.90;;;;;;5102554;28;19918;-66
2022/09/24 10:12:07;;;;;;;;;;;15.50;99.90;;;;;;5111396;28;20015;-65
2022/09/24 10:14:32;;;;;;;;;;;15.40;99.90;;;;;;5110991;28;20310;-65
2022/09/24 10:17:04;;;;;;;;;;;15.40;99.90;;;;;;5112838;28;19915;-66
2022/09/24 10:19:30;;;;;;;;;;;15.30;99.70;;;;;;5111940;28;19922;-64
2022/09/24 10:21:56;;;;;;;;;;;15.30;99.20;;;;;;5113138;28;20354;-66
2022/09/24 10:24:23;;;;;;;;;;;15.30;98.70;;;;;;5113331;28;19918;-66
2022/09/24 10:26:49;;;;;;;;;;;15.40;98.90;;;;;;5111813;28;19936;-65
2022/09/24 10:32:05;;;;;;;;;;;15.60;95.70;;;;;;5109506;28;19919;-65
2022/09/24 10:34:30;;;;;;;;;;;15.50;95.00;;;;;;5107611;28;19911;-66
2022/09/24 10:37:11;;;;;;;;;;;15.50;95.30;;;;;;5109714;28;20285;-66
2022/09/24 10:39:37;;;;;;;;;;;15.70;93.60;;;;;;5113067;28;19920;-65
2022/09/24 10:42:04;;;;;;;;;;;15.70;93.40;;;;;;5107979;28;20366;-67
2022/09/24 10:44:34;;;;;;;;;;;15.80;93.60;;;;;;5115058;28;19907;-66
2022/09/24 10:47:19;;;;;;;;;;;15.90;90.20;;;;;;5113249;28;19972;-65
2022/09/24 10:49:56;;;;;;;;;;;15.70;86.70;;;;;;5112465;28;20055;-65
2022/09/24 10:52:41;;;;;;;;;;;15.80;88.30;;;;;;5110847;28;19912;-65
2022/09/24 10:55:15;;;;;;;;;;;15.90;88.10;;;;;;5105164;28;19920;-68
2022/09/24 10:57:43;;;;;;;;;;;16.00;86.40;;;;;;5107305;28;19911;-66
2022/09/24 11:00:09;;;;;;;;;;;16.10;87.60;;;;;;5108481;28;19927;-65
2022/09/24 11:02:44;;;;;;;;;;;16.20;84.90;;;;;;5113837;28;19961;-63
2022/09/24 11:05:20;;;;;;;;;;;16.10;83.00;;;;;;5113047;28;19947;-63
2022/09/24 11:07:59;;;;;;;;;;;16.10;81.90;;;;;;5114822;28;19951;-63
2022/09/24 11:10:47;;;;;;;;;;;16.10;81.10;;;;;;5115823;28;20024;-62
2022/09/24 11:13:28;;;;;;;;;;;16.00;80.20;;;;;;5116085;28;19962;-66
2022/09/24 11:15:53;;;;;;;;;;;16.00;80.80;;;;;;5117242;28;19927;-65
2022/09/24 11:18:19;;;;;;;;;;;16.10;81.00;;;;;;5119732;28;19998;-68
2022/09/24 11:21:05;;;;;;;;;;;16.00;80.40;;;;;;5112990;28;20360;-66
2022/09/24 11:23:49;;;;;;;;;;;16.10;80.10;;;;;;5065603;28;19927;-65
2022/09/24 11:26:21;;;;;;;;;;;16.10;79.70;;;;;;5109360;28;19916;-66
2022/09/24 11:28:59;;;;;;;;;;;16.20;77.20;;;;;;5110864;28;19911;-65
2022/09/24 11:31:39;;;;;;;;;;;16.10;76.90;;;;;;5106558;28;20052;-65
2022/09/24 11:34:23;;;;;;;;;;;16.20;76.30;;;;;;5105878;28;19938;-66
2022/09/24 11:36:49;;;;;;;;;;;16.20;75.10;;;;;;5109737;27;19922;-65
2022/09/24 11:39:21;;;;;;;;;;;16.20;75.50;;;;;;5107158;28;19928;-66
2022/09/24 11:41:51;;;;;;;;;;;16.30;72.40;;;;;;5101642;28;19948;-68
2022/09/24 11:44:26;;;;;;;;;;;16.40;72.80;;;;;;5107011;28;20247;-66
2022/09/24 11:47:10;;;;;;;;;;;16.40;70.30;;;;;;5089097;28;20022;-65
2022/09/24 11:49:42;;;;;;;;;;;16.40;70.70;;;;;;5100985;28;20006;-66
2022/09/24 11:52:26;;;;;;;;;;;16.30;71.30;;;;;;5105416;28;20014;-65
2022/09/24 11:54:59;;;;;;;;;;;16.40;70.80;;;;;;5103688;28;19920;-65
2022/09/24 11:57:31;;;;;;;;;;;16.40;71.60;;;;;;5103468;28;19993;-66
2022/09/24 12:00:04;;;;;;;;;;;16.60;70.70;;;;;;5107611;28;19931;-65
2022/09/24 12:02:42;;;;;;;;;;;16.60;70.90;;;;;;5103085;28;19959;-65
2022/09/24 12:05:14;;;;;;;;;;;16.60;67.80;;;;;;5107006;28;19912;-65
2022/09/24 12:07:46;;;;;;;;;;;16.70;67.60;;;;;;5090635;28;19938;-65
2022/09/24 12:10:15;;;;;;;;;;;16.60;66.90;;;;;;5110341;28;19911;-65
2022/09/24 12:12:41;;;;;;;;;;;16.70;67.70;;;;;;5108254;28;19912;-65
2022/09/24 12:15:18;;;;;;;;;;;16.90;67.70;;;;;;5098068;28;19941;-64
2022/09/24 12:17:56;;;;;;;;;;;17.00;67.00;;;;;;5101033;28;19919;-66
2022/09/24 12:20:22;;;;;;;;;;;17.10;66.40;;;;;;5101396;27;20022;-64
2022/09/24 12:22:54;;;;;;;;;;;17.30;64.90;;;;;;5103624;27;20006;-65
2022/09/24 12:25:20;;;;;;;;;;;17.40;66.00;;;;;;5093569;28;19911;-66
2022/09/24 12:27:46;;;;;;;;;;;17.40;66.20;;;;;;5104138;27;19912;-64
2022/09/24 12:33:13;;;;;;;;;;;17.40;64.80;;;;;;5103298;27;19934;-65
2022/09/24 12:35:54;;;;;;;;;;;17.60;63.80;;;;;;5105573;27;19912;-64
2022/09/24 12:38:27;;;;;;;;;;;17.60;63.80;;;;;;5105054;28;19924;-65
2022/09/24 12:41:02;;;;;;;;;;;17.60;64.90;;;;;;5095928;27;20088;-66
2022/09/24 12:43:31;;;;;;;;;;;17.70;64.50;;;;;;5114429;27;19920;-66
2022/09/24 12:46:00;;;;;;;;;;;17.60;65.40;;;;;;5103415;28;19915;-65
2022/09/24 12:48:27;;;;;;;;;;;17.70;64.60;;;;;;5106933;28;19919;-64
2022/09/24 12:50:59;;;;;;;;;;;17.70;63.80;;;;;;5084033;28;19926;-65
2022/09/24 12:53:32;;;;;;;;;;;17.60;64.30;;;;;;5104324;28;19922;-64
2022/09/24 12:55:59;;;;;;;;;;;17.60;64.50;;;;;;5099062;28;20436;-64
2022/09/24 12:58:29;;;;;;;;;;;17.50;64.80;;;;;;5103714;28;19956;-64
2022/09/24 13:01:04;;;;;;;;;;;17.50;66.20;;;;;;5103767;28;20291;-65
2022/09/24 13:03:32;;;;;;;;;;;17.50;67.70;;;;;;5099043;27;19916;-64
2022/09/24 13:05:59;;;;;;;;;;;17.50;68.00;;;;;;5087623;28;20238;-65
2022/09/24 13:08:25;;;;;;;;;;;17.30;68.70;;;;;;5109579;27;19912;-65
2022/09/24 13:10:59;;;;;;;;;;;17.30;69.50;;;;;;5105105;28;19977;-65
2022/09/24 13:13:30;;;;;;;;;;;17.30;68.10;;;;;;5104853;28;20379;-66
2022/09/24 13:15:58;;;;;;;;;;;17.20;67.80;;;;;;5105236;28;20430;-65
2022/09/24 13:18:24;;;;;;;;;;;17.40;68.70;;;;;;5106586;28;19924;-64
2022/09/24 13:21:00;;;;;;;;;;;17.50;64.90;;;;;;5108790;28;19911;-66
2022/09/24 13:23:28;;;;;;;;;;;17.60;64.00;;;;;;5102025;28;19920;-66
2022/09/24 13:25:53;;;;;;;;;;;17.50;63.40;;;;;;5104079;28;19923;-64
2022/09/24 13:28:20;;;;;;;;;;;17.40;64.60;;;;;;5098227;28;19916;-67
2022/09/24 13:30:49;;;;;;;;;;;17.50;64.30;;;;;;5098918;28;20378;-65
2022/09/24 13:33:20;;;;;;;;;;;17.50;63.80;;;;;;5109687;28;19912;-66
2022/09/24 13:36:01;;;;;;;;;;;17.60;64.30;;;;;;5106459;28;19912;-66
2022/09/24 13:38:32;;;;;;;;;;;17.80;63.30;;;;;;5112998;28;20595;-66
2022/09/24 13:41:01;;;;;;;;;;;17.90;63.10;;;;;;5110795;28;19915;-66
2022/09/24 13:43:26;;;;;;;;;;;18.00;63.20;;;;;;5108269;28;20014;-65
2022/09/24 13:45:52;;;;;;;;;;;18.00;61.90;;;;;;5107785;28;19967;-65
2022/09/24 13:48:24;;;;;;;;;;;18.20;61.20;;;;;;5107117;28;20002;-65
2022/09/24 13:50:51;;;;;;;;;;;18.30;61.60;;;;;;5108979;28;20529;-66
2022/09/24 13:53:52;;;;;;;;;;;18.40;62.10;;;;;;5109438;28;19915;-66
2022/09/24 13:56:18;;;;;;;;;;;18.50;62.70;;;;;;5033896;28;20430;-66
2022/09/24 13:58:44;;;;;;;;;;;18.40;61.00;;;;;;5099558;28;19915;-66
2022/09/24 14:01:15;;;;;;;;;;;18.40;59.20;;;;;;5116918;28;19927;-65
2022/09/24 14:03:42;;;;;;;;;;;18.30;58.90;;;;;;5116277;28;19908;-66
2022/09/24 14:06:11;;;;;;;;;;;18.20;58.60;;;;;;5096353;28;19912;-65
2022/09/24 14:08:39;;;;;;;;;;;18.10;58.50;;;;;;5116238;28;20331;-66
2022/09/24 14:11:17;;;;;;;;;;;18.20;58.50;;;;;;5115826;28;19953;-65
2022/09/24 14:13:46;;;;;;;;;;;18.20;58.10;;;;;;5116316;28;20295;-65
2022/09/24 14:16:16;;;;;;;;;;;18.20;57.70;;;;;;5097561;28;19908;-65
2022/09/24 14:18:42;;;;;;;;;;;18.40;57.50;;;;;;5115909;28;19938;-66
2022/09/24 14:21:27;;;;;;;;;;;18.30;57.30;;;;;;5115505;28;20015;-65
2022/09/24 14:23:56;;;;;;;;;;;18.30;58.30;;;;;;5104926;28;20377;-65
2022/09/24 14:26:27;;;;;;;;;;;18.50;58.20;;;;;;5104820;28;20011;-65
2022/09/24 14:28:53;;;;;;;;;;;18.60;58.30;;;;;;5115531;28;20356;-65
2022/09/24 14:31:19;;;;;;;;;;;18.60;57.00;;;;;;5115890;28;19920;-65
2022/09/24 14:33:45;;;;;;;;;;;18.50;57.40;;;;;;5110748;28;19991;-65
2022/09/24 14:36:11;;;;;;;;;;;18.60;57.50;;;;;;5109595;28;20341;-66